createdAt,value
2018-05-19T00:00:18.260Z,14.87
2018-05-19T00:02:45.450Z,10.33
2018-05-19T00:05:12.638Z,17.50
2018-05-19T00:07:39.818Z,9.50
2018-05-19T00:10:07.039Z,10.80
2018-05-19T00:12:34.245Z,10.50
2018-05-19T00:15:01.458Z,9.53
2018-05-19T00:17:28.675Z,9.13
2018-05-19T00:19:55.863Z,11.97
2018-05-19T00:22:23.834Z,8.10
2018-05-19T00:24:51.021Z,15.93
2018-05-19T00:27:18.225Z,7.73
2018-05-19T00:29:45.417Z,10.60
2018-05-19T00:32:12.605Z,6.90
2018-05-19T00:34:39.800Z,6.93
2018-05-19T00:37:06.987Z,7.63
2018-05-19T00:39:34.181Z,7.60
2018-05-19T00:42:01.374Z,12.03
2018-05-19T00:44:28.570Z,10.57
2018-05-19T00:46:55.762Z,7.17
2018-05-19T00:49:22.964Z,9.40
2018-05-19T00:51:50.160Z,8.30
2018-05-19T00:54:17.356Z,8.90
2018-05-19T00:56:44.586Z,13.23
2018-05-19T00:59:11.773Z,9.27
2018-05-19T01:01:38.985Z,9.03
2018-05-19T01:04:06.380Z,7.13
2018-05-19T01:06:33.575Z,16.60
2018-05-19T01:09:00.772Z,9.40
2018-05-19T01:11:27.983Z,11.00
2018-05-19T01:13:55.195Z,6.20
2018-05-19T01:16:22.386Z,9.80
2018-05-19T01:18:49.576Z,10.43
2018-05-19T01:21:16.814Z,7.90
2018-05-19T01:23:44.006Z,7.60
2018-05-19T01:26:11.217Z,7.30
2018-05-19T01:28:38.422Z,10.00
2018-05-19T01:31:05.621Z,7.10
2018-05-19T01:33:32.810Z,9.30
2018-05-19T01:36:00.006Z,5.50
2018-05-19T01:38:27.206Z,8.93
2018-05-19T01:40:54.405Z,8.53
2018-05-19T01:43:21.890Z,11.23
2018-05-19T01:45:49.368Z,14.95
2018-05-19T01:48:16.552Z,10.77
2018-05-19T01:50:43.755Z,17.93
2018-05-19T01:53:10.937Z,11.77
2018-05-19T01:55:38.155Z,10.80
2018-05-19T01:58:05.375Z,15.10
2018-05-19T02:00:32.566Z,17.87
2018-05-19T02:02:59.775Z,8.30
2018-05-19T02:05:26.953Z,16.17
2018-05-19T02:07:54.182Z,8.67
2018-05-19T02:10:21.368Z,9.93
2018-05-19T02:12:48.571Z,6.97
2018-05-19T02:15:15.766Z,10.63
2018-05-19T02:17:43.237Z,10.15
2018-05-19T02:20:10.782Z,10.07
2018-05-19T02:22:37.959Z,8.47
2018-05-19T02:25:05.456Z,9.77
2018-05-19T02:27:32.964Z,10.85
2018-05-19T02:30:00.460Z,11.32
2018-05-19T02:32:27.929Z,20.30
2018-05-19T02:34:55.422Z,12.88
2018-05-19T02:37:22.917Z,11.20
2018-05-19T02:39:50.389Z,11.90
2018-05-19T02:42:17.892Z,10.35
2018-05-19T02:44:45.412Z,10.48
2018-05-19T02:47:12.889Z,9.52
2018-05-19T02:49:40.380Z,17.23
2018-05-19T02:52:07.862Z,14.63
2018-05-19T02:54:35.350Z,21.87
2018-05-19T02:57:02.851Z,8.30
2018-05-19T02:59:30.344Z,8.65
2018-05-19T03:01:57.825Z,7.80
2018-05-19T03:04:25.395Z,14.43
2018-05-19T03:06:53.022Z,9.70
2018-05-19T03:09:20.504Z,11.02
2018-05-19T03:11:48.009Z,10.55
2018-05-19T03:14:15.702Z,10.45
2018-05-19T03:16:43.203Z,7.55
2018-05-19T03:19:10.693Z,10.90
2018-05-19T03:21:38.169Z,12.82
2018-05-19T03:24:05.641Z,9.00
2018-05-19T03:26:33.133Z,10.63
2018-05-19T03:29:00.626Z,11.80
2018-05-19T03:31:28.084Z,14.80
2018-05-19T03:33:55.581Z,11.55
2018-05-19T03:36:24.065Z,10.15
2018-05-19T03:38:51.540Z,11.15
2018-05-19T03:41:19.029Z,8.63
2018-05-19T03:43:46.505Z,9.13
2018-05-19T03:46:13.698Z,12.10
2018-05-19T03:48:40.891Z,7.20
2018-05-19T03:51:08.107Z,9.47
2018-05-19T03:53:35.614Z,11.65
2018-05-19T03:56:02.841Z,12.63
2018-05-19T03:58:35.767Z,8.63
2018-05-19T04:01:08.772Z,8.30
2018-05-19T04:03:36.260Z,9.95
2018-05-19T04:06:03.205Z,9.70
2018-05-19T04:08:30.699Z,8.25
2018-05-19T04:10:57.893Z,8.60
2018-05-19T04:13:25.102Z,16.03
2018-05-19T04:15:52.279Z,9.53
2018-05-19T04:18:19.495Z,6.37
2018-05-19T04:20:46.688Z,8.53
2018-05-19T04:23:13.950Z,6.77
2018-05-19T04:25:41.278Z,6.47
2018-05-19T04:28:08.474Z,9.70
2018-05-19T04:30:35.678Z,6.33
2018-05-19T04:33:02.882Z,7.63
2018-05-19T04:35:30.108Z,12.10
2018-05-19T04:37:57.312Z,5.30
2018-05-19T04:40:24.544Z,5.27
2018-05-19T04:42:51.754Z,9.90
2018-05-19T04:45:19.002Z,7.10
2018-05-19T04:47:46.215Z,9.20
2018-05-19T04:50:13.404Z,6.40
2018-05-19T04:52:40.617Z,9.47
2018-05-19T04:55:07.809Z,5.80
2018-05-19T04:57:35.003Z,6.00
2018-05-19T05:00:01.973Z,5.17
2018-05-19T05:02:29.161Z,11.23
2018-05-19T05:04:56.362Z,8.67
2018-05-19T05:07:23.590Z,7.07
2018-05-19T05:09:50.834Z,12.73
2018-05-19T05:12:18.030Z,9.03
2018-05-19T05:14:45.223Z,17.03
2018-05-19T05:17:12.423Z,9.33
2018-05-19T05:19:39.635Z,13.00
2018-05-19T05:22:07.019Z,12.67
2018-05-19T05:24:34.207Z,16.27
2018-05-19T05:27:01.197Z,15.50
2018-05-19T05:29:28.404Z,11.73
2018-05-19T05:31:55.589Z,14.00
2018-05-19T05:34:22.798Z,17.43
2018-05-19T05:36:49.996Z,14.70
2018-05-19T05:39:17.224Z,12.80
2018-05-19T05:41:44.429Z,10.73
2018-05-19T05:44:11.625Z,18.57
2018-05-19T05:46:38.836Z,12.07
2018-05-19T05:49:06.046Z,19.23
2018-05-19T05:51:33.249Z,14.80
2018-05-19T05:54:00.435Z,13.87
2018-05-19T05:56:27.652Z,12.23
2018-05-19T05:58:54.836Z,14.70
2018-05-19T06:01:22.049Z,15.07
2018-05-19T06:03:49.252Z,14.30
2018-05-19T06:06:16.519Z,16.77
2018-05-19T06:08:43.858Z,12.60
2018-05-19T06:11:11.040Z,11.60
2018-05-19T06:13:38.260Z,11.23
2018-05-19T06:16:05.451Z,11.40
2018-05-19T06:18:32.747Z,18.70
2018-05-19T06:21:00.102Z,12.83
2018-05-19T06:23:27.410Z,15.70
2018-05-19T06:25:54.595Z,14.80
2018-05-19T06:28:21.801Z,17.17
2018-05-19T06:30:49.022Z,11.53
2018-05-19T06:33:16.393Z,11.57
2018-05-19T06:35:43.615Z,11.30
2018-05-19T06:38:10.814Z,17.07
2018-05-19T06:40:38.007Z,15.53
2018-05-19T06:43:05.240Z,16.27
2018-05-19T06:45:32.436Z,21.40
2018-05-19T06:47:59.674Z,15.07
2018-05-19T06:50:27.060Z,16.63
2018-05-19T06:52:54.241Z,14.10
2018-05-19T06:55:21.434Z,14.40
2018-05-19T06:57:48.637Z,15.30
2018-05-19T07:00:15.834Z,19.33
2018-05-19T07:02:43.125Z,17.93
2018-05-19T07:05:10.427Z,15.30
2018-05-19T07:07:37.610Z,13.43
2018-05-19T07:10:04.902Z,16.80
2018-05-19T07:12:32.113Z,12.80
2018-05-19T07:14:59.354Z,14.80
2018-05-19T07:17:26.723Z,15.50
2018-05-19T07:19:53.930Z,15.33
2018-05-19T07:22:21.148Z,21.80
2018-05-19T07:24:48.362Z,16.10
2018-05-19T07:27:15.596Z,14.43
2018-05-19T07:29:42.802Z,14.57
2018-05-19T07:32:09.993Z,15.33
2018-05-19T07:34:37.193Z,14.90
2018-05-19T07:37:04.382Z,12.37
2018-05-19T07:39:31.577Z,17.53
2018-05-19T07:41:58.763Z,14.10
2018-05-19T07:44:25.982Z,16.47
2018-05-19T07:46:53.339Z,15.50
2018-05-19T07:49:20.520Z,23.20
2018-05-19T07:51:47.758Z,13.80
2018-05-19T07:54:14.973Z,14.30
2018-05-19T07:56:42.177Z,15.77
2018-05-19T07:59:09.353Z,15.73
2018-05-19T08:01:36.556Z,18.80
2018-05-19T08:04:03.769Z,17.30
2018-05-19T08:06:30.961Z,15.33
2018-05-19T08:08:58.218Z,17.10
2018-05-19T08:11:25.406Z,15.03
2018-05-19T08:13:52.622Z,18.40
2018-05-19T08:16:19.847Z,14.70
2018-05-19T08:18:47.130Z,21.07
2018-05-19T08:21:14.359Z,13.87
2018-05-19T08:23:41.560Z,17.37
2018-05-19T08:26:08.767Z,18.70
2018-05-19T08:28:36.000Z,19.03
2018-05-19T08:31:03.385Z,19.43
2018-05-19T08:33:30.612Z,16.40
2018-05-19T08:35:57.826Z,17.30
2018-05-19T08:38:25.063Z,20.83
2018-05-19T08:40:52.290Z,14.67
2018-05-19T08:43:19.555Z,21.13
2018-05-19T08:45:46.766Z,21.20
2018-05-19T08:48:13.986Z,14.93
2018-05-19T08:50:41.181Z,16.10
2018-05-19T08:53:08.395Z,17.30
2018-05-19T08:55:35.591Z,13.43
2018-05-19T08:58:02.803Z,17.27
2018-05-19T09:00:30.011Z,13.37
2018-05-19T09:02:57.236Z,13.33
2018-05-19T09:05:24.451Z,15.37
2018-05-19T09:07:51.671Z,14.90
2018-05-19T09:10:18.886Z,20.17
2018-05-19T09:12:46.092Z,14.60
2018-05-19T09:15:13.487Z,15.60
2018-05-19T09:17:40.742Z,13.20
2018-05-19T09:20:07.955Z,19.50
2018-05-19T09:22:35.222Z,15.97
2018-05-19T09:25:02.486Z,14.50
2018-05-19T09:27:29.707Z,15.00
2018-05-19T09:29:56.897Z,18.57
2018-05-19T09:32:24.111Z,14.90
2018-05-19T09:34:51.321Z,18.70
2018-05-19T09:37:18.295Z,22.43
2018-05-19T09:39:45.584Z,18.70
2018-05-19T09:42:12.854Z,17.13
2018-05-19T09:44:40.066Z,17.87
2018-05-19T09:47:07.297Z,21.50
2018-05-19T09:49:34.482Z,20.90
2018-05-19T09:52:01.746Z,13.63
2018-05-19T09:54:28.963Z,16.13
2018-05-19T09:56:56.163Z,21.40
2018-05-19T09:59:23.474Z,18.10
2018-05-19T10:01:50.848Z,16.43
2018-05-19T10:04:18.062Z,16.20
2018-05-19T10:06:45.278Z,19.83
2018-05-19T10:09:12.503Z,21.93
2018-05-19T10:11:39.780Z,16.20
2018-05-19T10:14:07.130Z,25.50
2018-05-19T10:16:34.356Z,17.40
2018-05-19T10:19:01.547Z,18.03
2018-05-19T10:21:28.762Z,17.47
2018-05-19T10:23:55.953Z,13.60
2018-05-19T10:26:23.149Z,18.33
2018-05-19T10:28:50.354Z,18.40
2018-05-19T10:31:17.561Z,24.20
2018-05-19T10:33:44.778Z,20.07
2018-05-19T10:36:11.996Z,19.50
2018-05-19T10:38:39.218Z,15.23
2018-05-19T10:41:06.445Z,17.47
2018-05-19T10:43:33.689Z,18.53
2018-05-19T10:46:00.897Z,14.27
2018-05-19T10:48:28.120Z,16.33
2018-05-19T10:50:55.337Z,14.20
2018-05-19T10:53:22.523Z,16.53
2018-05-19T10:55:49.739Z,15.33
2018-05-19T10:58:16.972Z,18.17
2018-05-19T11:00:44.234Z,18.10
2018-05-19T11:03:11.444Z,17.20
2018-05-19T11:05:38.646Z,20.07
2018-05-19T11:08:05.867Z,13.93
2018-05-19T11:10:33.088Z,16.07
2018-05-19T11:13:00.275Z,22.93
2018-05-19T11:15:27.461Z,17.87
2018-05-19T11:17:54.666Z,15.67
2018-05-19T11:20:21.874Z,15.37
2018-05-19T11:22:49.125Z,13.83
2018-05-19T11:25:16.347Z,12.47
2018-05-19T11:27:43.537Z,11.93
2018-05-19T11:30:10.764Z,11.57
2018-05-19T11:32:37.958Z,20.63
2018-05-19T11:35:05.163Z,12.70
2018-05-19T11:37:32.385Z,15.30
2018-05-19T11:39:59.676Z,12.93
2018-05-19T11:42:26.892Z,13.47
2018-05-19T11:44:54.199Z,12.93
2018-05-19T11:47:21.408Z,15.53
2018-05-19T11:49:48.614Z,14.13
2018-05-19T11:52:15.825Z,11.50
2018-05-19T11:54:43.027Z,11.57
2018-05-19T11:57:10.230Z,7.10
2018-05-19T11:59:37.428Z,11.13
2018-05-19T12:02:04.644Z,11.13
2018-05-19T12:04:31.852Z,10.03
2018-05-19T12:06:59.062Z,8.93
2018-05-19T12:09:26.821Z,11.63
2018-05-19T12:11:54.155Z,12.80
2018-05-19T12:14:21.468Z,14.70
2018-05-19T12:16:48.670Z,8.93
2018-05-19T12:19:15.886Z,11.43
2018-05-19T12:21:43.084Z,12.27
2018-05-19T12:24:10.300Z,10.50
2018-05-19T12:26:38.167Z,9.63
2018-05-19T12:29:05.404Z,10.70
2018-05-19T12:31:33.951Z,11.90
2018-05-19T12:34:01.138Z,14.63
2018-05-19T12:36:28.395Z,10.67
2018-05-19T12:38:55.605Z,9.70
2018-05-19T12:41:22.942Z,9.43
2018-05-19T12:43:50.251Z,10.63
2018-05-19T12:46:17.553Z,15.63
2018-05-19T12:48:44.772Z,9.97
2018-05-19T12:51:11.965Z,9.13
2018-05-19T12:53:39.205Z,11.63
2018-05-19T12:56:06.432Z,16.43
2018-05-19T12:58:33.630Z,11.27
2018-05-19T13:01:00.950Z,9.30
2018-05-19T13:03:28.234Z,11.57
2018-05-19T13:05:55.549Z,13.23
2018-05-19T13:08:22.781Z,9.50
2018-05-19T13:10:50.014Z,9.80
2018-05-19T13:13:17.223Z,12.97
2018-05-19T13:15:44.450Z,12.77
2018-05-19T13:18:11.646Z,16.53
2018-05-19T13:20:38.942Z,14.43
2018-05-19T13:23:06.144Z,16.30
2018-05-19T13:25:33.427Z,9.23
2018-05-19T13:28:00.859Z,9.03
2018-05-19T13:30:28.037Z,9.93
2018-05-19T13:32:55.256Z,16.03
2018-05-19T13:35:22.482Z,8.90
2018-05-19T13:37:49.657Z,7.70
2018-05-19T13:40:16.871Z,7.30
2018-05-19T13:42:44.047Z,8.30
2018-05-19T13:45:11.248Z,8.00
2018-05-19T13:47:38.469Z,17.60
2018-05-19T13:50:05.702Z,10.97
2018-05-19T13:52:32.914Z,6.80
2018-05-19T13:55:00.130Z,6.73
2018-05-19T13:57:27.423Z,8.43
2018-05-19T13:59:54.743Z,9.73
2018-05-19T14:02:21.957Z,9.53
2018-05-19T14:04:49.167Z,8.03
2018-05-19T14:07:16.365Z,6.97
2018-05-19T14:09:43.575Z,11.83
2018-05-19T14:12:10.803Z,8.13
2018-05-19T14:14:38.170Z,8.20
2018-05-19T14:17:05.363Z,10.43
2018-05-19T14:19:32.554Z,7.97
2018-05-19T14:21:59.751Z,11.70
2018-05-19T14:24:26.946Z,9.73
2018-05-19T14:26:54.160Z,11.60
2018-05-19T14:29:21.347Z,8.87
2018-05-19T14:31:48.543Z,11.10
2018-05-19T14:34:15.727Z,7.80
2018-05-19T14:36:42.965Z,10.30
2018-05-19T14:39:10.173Z,10.17
2018-05-19T14:41:37.374Z,10.00
2018-05-19T14:44:04.570Z,8.40
2018-05-19T14:46:31.795Z,10.37
2018-05-19T14:48:58.992Z,10.07
2018-05-19T14:51:26.189Z,8.33
2018-05-19T14:53:53.567Z,11.77
2018-05-19T14:56:20.902Z,10.40
2018-05-19T14:58:48.239Z,11.63
2018-05-19T15:01:15.430Z,11.80
2018-05-19T15:03:42.746Z,8.00
2018-05-19T15:06:09.957Z,9.13
2018-05-19T15:08:37.150Z,12.27
2018-05-19T15:11:04.350Z,11.70
2018-05-19T15:13:31.654Z,8.20
2018-05-19T15:15:58.866Z,9.43
2018-05-19T15:18:26.079Z,7.17
2018-05-19T15:20:53.314Z,12.33
2018-05-19T15:23:20.624Z,11.20
2018-05-19T15:25:47.907Z,7.60
2018-05-19T15:28:15.107Z,7.97
2018-05-19T15:30:42.354Z,8.57
2018-05-19T15:33:10.570Z,8.07
2018-05-19T15:35:37.777Z,7.90
2018-05-19T15:38:04.976Z,8.53
2018-05-19T15:40:32.205Z,10.57
2018-05-19T15:42:59.418Z,15.33
2018-05-19T15:45:26.643Z,19.53
2018-05-19T15:47:53.859Z,12.77
2018-05-19T15:50:21.054Z,8.70
2018-05-19T15:52:48.273Z,7.33
2018-05-19T15:55:15.451Z,5.70
2018-05-19T15:57:42.676Z,14.13
2018-05-19T16:00:09.920Z,5.73
2018-05-19T16:02:37.161Z,4.90
2018-05-19T16:05:04.478Z,10.97
2018-05-19T16:07:31.703Z,3.33
2018-05-19T16:09:58.923Z,4.37
2018-05-19T16:12:26.129Z,4.63
2018-05-19T16:14:53.598Z,4.60
2018-05-19T16:17:20.808Z,3.57
2018-05-19T16:19:48.804Z,5.37
2018-05-19T16:22:16.008Z,3.73
2018-05-19T16:24:43.490Z,3.62
2018-05-19T16:27:10.893Z,6.67
2018-05-19T16:29:38.180Z,3.07
2018-05-19T16:32:05.401Z,6.43
2018-05-19T16:34:32.606Z,3.13
2018-05-19T16:36:59.895Z,3.57
2018-05-19T16:39:27.092Z,3.83
2018-05-19T16:41:54.484Z,7.03
2018-05-19T16:44:21.738Z,5.53
2018-05-19T16:46:48.968Z,3.90
2018-05-19T16:49:16.193Z,3.73
2018-05-19T16:51:43.421Z,3.80
2018-05-19T16:54:10.624Z,5.93
2018-05-19T16:56:37.836Z,4.63
2018-05-19T16:59:05.046Z,4.10
2018-05-19T17:01:32.241Z,4.70
2018-05-19T17:03:59.442Z,5.43
2018-05-19T17:06:26.646Z,4.90
2018-05-19T17:08:53.826Z,4.47
2018-05-19T17:11:21.053Z,3.33
2018-05-19T17:13:48.275Z,6.57
2018-05-19T17:16:15.476Z,4.47
2018-05-19T17:18:42.763Z,15.43
2018-05-19T17:21:10.765Z,5.20
2018-05-19T17:23:37.960Z,4.13
2018-05-19T17:26:05.148Z,8.37
2018-05-19T17:28:32.349Z,8.20
2018-05-19T17:30:59.539Z,4.77
2018-05-19T17:33:26.837Z,6.80
2018-05-19T17:35:54.165Z,4.93
2018-05-19T17:38:21.352Z,4.90
2018-05-19T17:40:50.063Z,6.80
2018-05-19T17:43:17.259Z,7.73
2018-05-19T17:45:44.472Z,6.07
2018-05-19T17:48:11.646Z,5.17
2018-05-19T17:50:38.825Z,5.20
2018-05-19T17:53:06.083Z,5.03
2018-05-19T17:55:33.418Z,5.37
2018-05-19T17:58:00.649Z,5.53
2018-05-19T18:00:27.825Z,7.30
2018-05-19T18:02:55.064Z,6.97
2018-05-19T18:05:22.328Z,7.37
2018-05-19T18:07:49.730Z,4.40
2018-05-19T18:10:17.127Z,5.87
2018-05-19T18:12:44.343Z,6.80
2018-05-19T18:15:11.626Z,5.50
2018-05-19T18:17:38.823Z,5.63
2018-05-19T18:20:06.045Z,4.93
2018-05-19T18:22:33.231Z,5.10
2018-05-19T18:25:00.453Z,5.63
2018-05-19T18:27:27.667Z,6.03
2018-05-19T18:29:54.907Z,8.87
2018-05-19T18:32:22.134Z,6.00
2018-05-19T18:34:49.322Z,5.77
2018-05-19T18:37:16.518Z,6.50
2018-05-19T18:39:43.719Z,7.13
2018-05-19T18:42:10.929Z,5.70
2018-05-19T18:44:38.165Z,7.77
2018-05-19T18:47:05.556Z,5.90
2018-05-19T18:49:32.775Z,7.97
2018-05-19T18:51:59.959Z,9.23
2018-05-19T18:54:27.172Z,8.70
2018-05-19T18:56:54.387Z,10.37
2018-05-19T18:59:21.589Z,10.93
2018-05-19T19:01:48.807Z,10.10
2018-05-19T19:04:16.007Z,10.23
2018-05-19T19:06:43.219Z,7.20
2018-05-19T19:09:10.507Z,6.93
2018-05-19T19:11:37.723Z,8.03
2018-05-19T19:14:04.978Z,7.80
2018-05-19T19:16:32.274Z,6.63
2018-05-19T19:18:59.661Z,8.47
2018-05-19T19:21:26.849Z,6.37
2018-05-19T19:23:54.054Z,6.43
2018-05-19T19:26:21.252Z,6.80
2018-05-19T19:28:48.468Z,7.33
2018-05-19T19:31:15.699Z,10.33
2018-05-19T19:33:42.905Z,9.63
2018-05-19T19:36:11.331Z,8.90
2018-05-19T19:38:38.598Z,9.00
2018-05-19T19:41:05.849Z,9.37
2018-05-19T19:43:33.938Z,7.27
2018-05-19T19:46:01.242Z,9.43
2018-05-19T19:48:28.449Z,8.17
2018-05-19T19:50:55.679Z,10.80
2018-05-19T19:53:24.500Z,9.03
2018-05-19T19:55:56.444Z,8.10
2018-05-19T19:58:24.074Z,10.57
2018-05-19T20:00:51.301Z,10.60
2018-05-19T20:03:18.559Z,9.70
2018-05-19T20:05:45.758Z,11.03
2018-05-19T20:08:15.810Z,9.83
2018-05-19T20:10:43.002Z,15.50
2018-05-19T20:13:10.235Z,8.93
2018-05-19T20:15:37.447Z,9.00
2018-05-19T20:18:04.628Z,8.57
2018-05-19T20:20:31.860Z,9.40
2018-05-19T20:22:59.051Z,12.30
2018-05-19T20:25:26.275Z,9.77
2018-05-19T20:27:53.463Z,9.00
2018-05-19T20:30:20.702Z,7.30
2018-05-19T20:32:47.904Z,10.57
2018-05-19T20:35:15.130Z,13.37
2018-05-19T20:37:42.324Z,14.03
2018-05-19T20:40:09.534Z,13.50
2018-05-19T20:42:36.840Z,12.77
2018-05-19T20:45:03.974Z,13.97
2018-05-19T20:47:31.162Z,12.23
2018-05-19T20:49:58.398Z,11.97
2018-05-19T20:52:25.804Z,12.20
2018-05-19T20:54:53.020Z,12.20
2018-05-19T20:57:20.318Z,12.03
2018-05-19T20:59:47.531Z,14.10
2018-05-19T21:02:14.762Z,10.80
2018-05-19T21:04:41.958Z,11.93
2018-05-19T21:07:09.195Z,14.07
2018-05-19T21:09:36.387Z,10.80
2018-05-19T21:12:03.602Z,9.53
2018-05-19T21:14:30.812Z,11.60
2018-05-19T21:16:58.065Z,10.07
2018-05-19T21:19:25.279Z,12.33
2018-05-19T21:21:52.482Z,10.90
2018-05-19T21:24:19.686Z,12.13
2018-05-19T21:26:46.895Z,11.93
2018-05-19T21:29:14.111Z,11.77
2018-05-19T21:31:41.329Z,18.13
2018-05-19T21:34:08.525Z,11.03
2018-05-19T21:36:35.724Z,10.93
2018-05-19T21:39:02.709Z,10.90
2018-05-19T21:41:29.909Z,13.23
2018-05-19T21:43:57.106Z,14.37
2018-05-19T21:46:24.401Z,12.87
2018-05-19T21:48:51.587Z,10.80
2018-05-19T21:51:18.806Z,9.97
2018-05-19T21:53:45.998Z,11.53
2018-05-19T21:56:13.210Z,13.93
2018-05-19T21:58:40.408Z,9.90
2018-05-19T22:01:07.609Z,10.97
2018-05-19T22:03:34.813Z,13.83
2018-05-19T22:06:02.020Z,11.73
2018-05-19T22:08:29.229Z,10.57
2018-05-19T22:10:56.462Z,11.03
2018-05-19T22:13:23.658Z,9.83
2018-05-19T22:15:50.850Z,9.40
2018-05-19T22:18:18.062Z,14.17
2018-05-19T22:20:45.269Z,10.00
2018-05-19T22:23:12.483Z,10.00
2018-05-19T22:25:39.679Z,12.57
2018-05-19T22:28:06.879Z,12.30
2018-05-19T22:30:34.091Z,11.43
2018-05-19T22:33:01.289Z,11.20
2018-05-19T22:35:28.498Z,13.83
2018-05-19T22:37:55.723Z,12.70
2018-05-19T22:40:22.921Z,12.70
2018-05-19T22:42:50.130Z,13.00
2018-05-19T22:45:17.331Z,11.97
2018-05-19T22:47:44.617Z,12.53
2018-05-19T22:50:11.850Z,10.53
2018-05-19T22:52:39.083Z,12.60
2018-05-19T22:55:06.306Z,12.30
2018-05-19T22:57:33.502Z,13.40
2018-05-19T23:00:00.755Z,14.60
2018-05-19T23:02:27.971Z,15.03
2018-05-19T23:04:55.199Z,13.23
2018-05-19T23:07:22.558Z,14.07
2018-05-19T23:09:49.769Z,12.13
2018-05-19T23:12:16.975Z,12.80
2018-05-19T23:14:44.215Z,11.13
2018-05-19T23:17:11.427Z,11.93
2018-05-19T23:19:38.622Z,13.90
2018-05-19T23:22:05.839Z,15.50
2018-05-19T23:24:33.039Z,15.60
2018-05-19T23:27:00.278Z,13.33
2018-05-19T23:29:27.491Z,14.73
2018-05-19T23:31:54.703Z,16.60
2018-05-19T23:34:21.921Z,18.77
2018-05-19T23:36:49.139Z,15.00
2018-05-19T23:39:16.447Z,14.27
2018-05-19T23:41:43.638Z,15.87
2018-05-19T23:44:10.848Z,13.53
2018-05-19T23:46:38.074Z,14.53
2018-05-19T23:49:05.275Z,15.50
2018-05-19T23:51:32.486Z,16.13
2018-05-19T23:53:59.701Z,14.67
2018-05-19T23:56:26.919Z,14.10
2018-05-19T23:58:54.130Z,19.20
